MSC Rhiannon — D5IY4 — position and weather

sailwx.info

Track history (hours):
 
Tides and Currents Weather Stations Pressure Air Temp Water Temp Dewpoint Dewpoint Depression Visibility Wind Speed Wind Dir Waves Ship Positions

MSC Rhiannon

Last reported at 2017-Sep-20 23:21 UTC. Time now 2017-Sep-23 00:23 UTC.
Position N 44°27' E 013°43'.

Length 188 m; draft 8.2 m.

Type: Ship (hazmat cat D). MMSI: 636017023.

Date/timePositionNaut miles runAvg speedWind from/ knotsBaromVisibWave heightAir tempDewpointWater temp
2017-Sep-20 23:21N 44°27' E 013°43'513.8
2017-Sep-20 23:00N 44°31' E 013°39'713.7
2017-Sep-20 22:30N 44°37' E 013°34'713.6
2017-Sep-20 22:00N 44°43' E 013°28'713.6
2017-Sep-20 21:30N 44°48' E 013°23'713.5
2017-Sep-20 21:00N 44°54' E 013°18'713.3
2017-Sep-20 20:30N 44°59' E 013°12'713.3
2017-Sep-20 20:00N 45°05' E 013°07'713.3
2017-Sep-20 19:30N 45°11' E 013°03'713.3
2017-Sep-20 19:00N 45°17' E 013°01'612.8
2017-Sep-20 18:30N 45°24' E 013°01'612.7
2017-Sep-20 18:00N 45°29' E 013°06'713.4
2017-Sep-20 17:30N 45°32' E 013°14'713.2
2017-Sep-20 17:00N 45°35' E 013°23'713.4
2017-Sep-20 16:30N 45°37' E 013°32'611.9
2017-Sep-20 16:00N 45°39' E 013°40'4 8.9
2017-Sep-20 15:30N 45°38' E 013°46'0 0.2
2017-Sep-20 14:59N 45°38' E 013°46'0 0.0
2017-Sep-20 13:53N 45°38' E 013°46'0 0.0
2017-Sep-20 13:23N 45°38' E 013°46'0 0.0
2017-Sep-20 12:53N 45°38' E 013°46'0 0.0
2017-Sep-20 12:29N 45°38' E 013°46'0 0.0
2017-Sep-20 11:59N 45°38' E 013°46'0 0.0
2017-Sep-20 11:29N 45°38' E 013°46'0 0.0
2017-Sep-20 10:59N 45°38' E 013°46'0 0.0
2017-Sep-20 10:29N 45°38' E 013°46'0 0.0
2017-Sep-20 09:59N 45°38' E 013°46'0 0.0
2017-Sep-20 09:29N 45°38' E 013°46'0 0.0
2017-Sep-20 08:59N 45°38' E 013°46'0 0.0
2017-Sep-20 08:29N 45°38' E 013°46'0 0.0
2017-Sep-20 07:56N 45°38' E 013°46'0 0.0
2017-Sep-20 07:29N 45°38' E 013°46'0 0.0
2017-Sep-20 06:56N 45°38' E 013°46'0 0.0
2017-Sep-20 06:26N 45°38' E 013°46'0 0.0
2017-Sep-20 05:59N 45°38' E 013°46'0 0.0
2017-Sep-20 05:26N 45°38' E 013°46'0 0.0
2017-Sep-20 04:59N 45°38' E 013°46'0 0.0
2017-Sep-20 04:26N 45°38' E 013°46'0 0.0
2017-Sep-20 03:59N 45°38' E 013°46'0 0.0
2017-Sep-20 03:23N 45°38' E 013°46'0 0.0
2017-Sep-20 02:59N 45°38' E 013°46'0 0.0
2017-Sep-20 02:29N 45°38' E 013°46'0 0.0
2017-Sep-20 01:56N 45°38' E 013°46'0 0.0
2017-Sep-20 01:23N 45°38' E 013°46'0 0.0
2017-Sep-20 00:59N 45°38' E 013°46'0 0.0
2017-Sep-20 00:26N 45°38' E 013°46'0 0.0
2017-Sep-19 23:59N 45°38' E 013°46'0 0.0
2017-Sep-19 23:29N 45°38' E 013°46'0 0.0
2017-Sep-19 22:56N 45°38' E 013°46'0 0.0
2017-Sep-19 22:29N 45°38' E 013°46'0 0.0
2017-Sep-19 21:56N 45°38' E 013°46'0 0.0
2017-Sep-19 21:29N 45°38' E 013°46'0 0.0
2017-Sep-19 20:59N 45°38' E 013°46'0 0.0
2017-Sep-19 20:26N 45°38' E 013°46'0 0.0
2017-Sep-19 19:59N 45°38' E 013°46'0 0.6
2017-Sep-19 19:30N 45°38' E 013°45'3 6.3
2017-Sep-19 19:00N 45°39' E 013°41'1 3.0
2017-Sep-19 18:30N 45°39' E 013°39'5 9.9
2017-Sep-19 18:00N 45°36' E 013°34'613.1
2017-Sep-19 17:30N 45°32' E 013°26'612.8
2017-Sep-19 17:00N 45°29' E 013°18'612.7
2017-Sep-19 16:30N 45°26' E 013°10'612.4
2017-Sep-19 16:00N 45°24' E 013°02'612.4
2017-Sep-19 15:30N 45°22' E 012°53'612.4
2017-Sep-19 15:00N 45°19' E 012°45'612.4
2017-Sep-19 14:30N 45°17' E 012°37'611.5
2017-Sep-19 14:00N 45°15' E 012°30'713.3
2017-Sep-19 13:30N 45°19' E 012°23'510.0
2017-Sep-19 13:00N 45°21' E 012°16'4 7.6
2017-Sep-19 12:30N 45°25' E 012°16'2 5.0
2017-Sep-19 12:01N 45°27' E 012°15'0 0.2
2017-Sep-19 11:29N 45°27' E 012°15'0 0.0
2017-Sep-19 10:59N 45°27' E 012°15'0 0.0
2017-Sep-19 10:29N 45°27' E 012°15'0 0.0
2017-Sep-19 09:59N 45°27' E 012°15'0 0.0
2017-Sep-19 09:29N 45°27' E 012°15'0 0.0
2017-Sep-19 08:59N 45°27' E 012°15'0 0.0
2017-Sep-19 08:29N 45°27' E 012°15'0 0.0
2017-Sep-19 07:59N 45°27' E 012°15'0 0.0
2017-Sep-19 07:29N 45°27' E 012°15'0 0.0
2017-Sep-19 06:59N 45°27' E 012°15'0 0.0
2017-Sep-19 06:29N 45°27' E 012°15'0 0.0
2017-Sep-19 05:59N 45°27' E 012°15'0 0.0
2017-Sep-19 05:29N 45°27' E 012°15'0 0.0
2017-Sep-19 04:59N 45°27' E 012°15'0 0.0
2017-Sep-19 04:29N 45°27' E 012°15'0 0.0
2017-Sep-19 03:56N 45°27' E 012°15'0 0.0
2017-Sep-19 03:29N 45°27' E 012°15'0 0.0
2017-Sep-19 02:59N 45°27' E 012°15'0 0.0
2017-Sep-19 02:29N 45°27' E 012°15'0 0.0
2017-Sep-19 01:59N 45°27' E 012°15'0 0.0
2017-Sep-19 01:29N 45°27' E 012°15'0 0.0
2017-Sep-19 00:56N 45°27' E 012°15'0 0.0
2017-Sep-19 00:29N 45°27' E 012°15'0 0.0
2017-Sep-18 23:59N 45°27' E 012°15'0 0.0
2017-Sep-18 23:29N 45°27' E 012°15'0 0.0
2017-Sep-18 22:59N 45°27' E 012°15'0 0.0
2017-Sep-18 22:29N 45°27' E 012°15'0 0.0
2017-Sep-18 21:59N 45°27' E 012°15'0 0.0
2017-Sep-18 21:29N 45°27' E 012°15'0 0.0
2017-Sep-18 20:59N 45°27' E 012°15'0 0.0
2017-Sep-18 20:29N 45°27' E 012°15'0 0.0
2017-Sep-18 19:59N 45°27' E 012°15'0 0.0
2017-Sep-18 19:29N 45°27' E 012°15'0 0.0
2017-Sep-18 18:59N 45°27' E 012°15'0 0.0
2017-Sep-18 18:29N 45°27' E 012°15'0 0.0
2017-Sep-18 17:59N 45°27' E 012°15'0 0.0
2017-Sep-18 17:29N 45°27' E 012°15'0 0.0
2017-Sep-18 16:59N 45°27' E 012°15'0 0.0
2017-Sep-18 16:29N 45°27' E 012°15'0 0.0
2017-Sep-18 15:59N 45°27' E 012°15'0 0.0
2017-Sep-18 15:29N 45°27' E 012°15'0 0.0
2017-Sep-18 14:59N 45°27' E 012°15'0 0.0
2017-Sep-18 14:29N 45°27' E 012°15'0 0.0
2017-Sep-18 13:59N 45°27' E 012°15'0 0.0
2017-Sep-18 13:29N 45°27' E 012°15'0 0.0
2017-Sep-18 12:59N 45°27' E 012°15'0 0.0
2017-Sep-18 12:29N 45°27' E 012°15'0 0.0
2017-Sep-18 11:59N 45°27' E 012°15'0 0.0
2017-Sep-18 11:29N 45°27' E 012°15'0 0.0
2017-Sep-18 10:59N 45°27' E 012°15'0 0.0
2017-Sep-18 10:29N 45°27' E 012°15'0 0.0
2017-Sep-18 09:59N 45°27' E 012°15'0 0.0
2017-Sep-18 09:29N 45°27' E 012°15'0 0.0
2017-Sep-18 08:59N 45°27' E 012°15'0 0.0
2017-Sep-18 08:29N 45°27' E 012°15'0 0.0
2017-Sep-18 07:59N 45°27' E 012°15'0 0.0
2017-Sep-18 07:29N 45°27' E 012°15'0 0.0
2017-Sep-18 06:59N 45°27' E 012°15'0 0.0
2017-Sep-18 06:29N 45°27' E 012°15'0 0.0
2017-Sep-18 05:59N 45°27' E 012°15'0 0.9
2017-Sep-18 05:30N 45°27' E 012°16'3 6.2
2017-Sep-18 05:00N 45°24' E 012°16'4 7.4
2017-Sep-18 04:30N 45°20' E 012°18'4 9.0
2017-Sep-18 04:00N 45°19' E 012°24'3 5.3
2017-Sep-18 03:29N 45°18' E 012°28'3 5.9
2017-Sep-18 03:00N 45°17' E 012°31'4 7.5
2017-Sep-18 02:30N 45°15' E 012°36'5 9.7
2017-Sep-18 02:00N 45°12' E 012°41'5 9.4
2017-Sep-18 01:30N 45°09' E 012°46'5 9.1
2017-Sep-18 01:00N 45°05' E 012°50'5 9.3
2017-Sep-18 00:30N 45°01' E 012°52'510.8
2017-Sep-18 00:00N 44°56' E 012°54'713.0
2017-Sep-17 23:30N 44°49' E 012°52'612.7
2017-Sep-17 23:00N 44°43' E 012°48'612.4
2017-Sep-17 22:30N 44°38' E 012°45'5 9.4
2017-Sep-17 22:00N 44°33' E 012°43'813.0
2017-Sep-17 21:25N 44°28' E 012°36'613.9
2017-Sep-17 21:00N 44°29' E 012°28'2 0.1
2017-Sep-17 04:02N 44°30' E 012°26'0 3.3
2017-Sep-17 03:58N 44°30' E 012°26'14 6.2
2017-Sep-17 01:41N 44°26' E 012°45'211.1
2017-Sep-17 01:30N 44°26' E 012°48'1310.7
2017-Sep-17 00:19N 44°19' E 013°03'412.8
2017-Sep-17 00:00N 44°18' E 013°08'612.1
2017-Sep-16 23:30N 44°17' E 013°17'612.6
2017-Sep-16 23:00N 44°13' E 013°24'26 9.9
2017-Sep-16 20:22N 43°57' E 013°52'22 8.9
2017-Sep-16 17:56N 43°39' E 013°34'4 0.4
2017-Sep-16 07:45N 43°37' E 013°30'0 0.2
2017-Sep-16 07:23N 43°37' E 013°30'21 6.5
2017-Sep-16 04:09N 43°51' E 013°51'6 9.7
2017-Sep-16 03:32N 43°51' E 013°59'0 9.6
2017-Sep-16 03:30N 43°51' E 013°60'26313.6
2017-Sep-15 08:08N 40°45' E 018°12'213.1
2017-Sep-15 07:58N 40°43' E 018°14'612.8
2017-Sep-15 07:28N 40°38' E 018°19'612.6
2017-Sep-15 07:00N 40°33' E 018°23'812.3
2017-Sep-15 06:24N 40°28' E 018°30'512.7
2017-Sep-15 05:59N 40°24' E 018°34'812.8
2017-Sep-15 05:21N 40°17' E 018°41'712.5
2017-Sep-15 04:50N 40°11' E 018°42'813.1
2017-Sep-15 04:14N 40°03' E 018°42'713.2
2017-Sep-15 03:43N 39°56' E 018°42'413.3
2017-Sep-15 03:27N 39°53' E 018°42'613.5
2017-Sep-15 03:00N 39°47' E 018°43'1313.5
2017-Sep-15 02:04N 39°38' E 018°31'113.8
2017-Sep-15 02:00N 39°37' E 018°30'713.7
2017-Sep-15 01:30N 39°32' E 018°24'713.5
2017-Sep-15 01:00N 39°28' E 018°18'713.5
2017-Sep-15 00:30N 39°23' E 018°11'713.4
2017-Sep-15 00:00N 39°19' E 018°05'713.3
2017-Sep-14 23:30N 39°14' E 017°58'713.2
2017-Sep-14 23:00N 39°10' E 017°52'713.2
2017-Sep-14 22:30N 39°05' E 017°46'713.4
2017-Sep-14 22:00N 39°00' E 017°40'713.7
2017-Sep-14 21:30N 38°56' E 017°34'713.6
2017-Sep-14 21:01N 38°51' E 017°27'713.4
2017-Sep-14 20:30N 38°46' E 017°22'713.2
2017-Sep-14 20:01N 38°41' E 017°16'713.8
2017-Sep-14 19:31N 38°36' E 017°09'713.9
2017-Sep-14 19:01N 38°32' E 017°03'6613.4
2017-Sep-14 14:05N 37°50' E 015°58'214.3
2017-Sep-14 13:58N 37°50' E 015°56'714.4
2017-Sep-14 13:30N 37°50' E 015°47'713.5
2017-Sep-14 13:00N 37°52' E 015°39'713.9
2017-Sep-14 12:30N 37°57' E 015°33'714.7
2017-Sep-14 12:00N 38°05' E 015°34'815.2
2017-Sep-14 11:30N 38°12' E 015°35'714.5
2017-Sep-14 11:01N 38°18' E 015°41'713.3
2017-Sep-14 10:30N 38°23' E 015°45'713.5
2017-Sep-14 10:00N 38°27' E 015°52'2 3.0
2017-Sep-14 09:30N 38°28' E 015°54'0 0.0
2017-Sep-14 08:49N 38°28' E 015°54'0 0.0
2017-Sep-14 08:25N 38°28' E 015°54'0 0.0
2017-Sep-14 07:43N 38°28' E 015°54'0 0.0
2017-Sep-14 07:31N 38°28' E 015°54'0 0.0
2017-Sep-14 06:49N 38°28' E 015°54'0 0.0
2017-Sep-14 06:25N 38°28' E 015°54'0 0.0
2017-Sep-14 06:00N 38°28' E 015°54'0 0.0
2017-Sep-14 05:19N 38°28' E 015°54'0 0.0
2017-Sep-14 04:58N 38°28' E 015°54'0 0.0
2017-Sep-13 10:00N 38°28' E 015°54'1 2.2
2017-Sep-13 09:29N 38°27' E 015°54'4 6.5
2017-Sep-13 08:56N 38°28' E 015°49'2 5.5
2017-Sep-13 08:30N 38°27' E 015°52'1 1.9
2017-Sep-13 08:00N 38°27' E 015°53'3 5.9
2017-Sep-13 07:30N 38°28' E 015°50'3 5.5
2017-Sep-13 07:00N 38°29' E 015°47'0 0.7
2017-Sep-13 06:30N 38°28' E 015°47'0 0.4
2017-Sep-13 05:58N 38°28' E 015°47'0 0.3
2017-Sep-13 05:25N 38°28' E 015°47'1 2.0
2017-Sep-13 05:00N 38°28' E 015°47'5 9.5
2017-Sep-13 04:30N 38°23' E 015°46'1113.3
2017-Sep-13 03:40N 38°14' E 015°37'315.6
2017-Sep-13 03:29N 38°11' E 015°37'510.2
2017-Sep-13 03:00N 38°06' E 015°36'5 9.2
2017-Sep-13 02:30N 38°02' E 015°36'6 9.8
2017-Sep-13 01:56N 37°56' E 015°36'7 8.6
2017-Sep-13 01:07N 37°51' E 015°41'210.9
2017-Sep-13 00:58N 37°50' E 015°43'510.6
2017-Sep-13 00:30N 37°47' E 015°49'510.8
2017-Sep-13 00:00N 37°45' E 015°54'610.7
2017-Sep-12 23:25N 37°41' E 016°01'910.4
2017-Sep-12 22:32N 37°37' E 016°12'210.4
2017-Sep-12 22:19N 37°36' E 016°14'  
Track history (hours):
 
Tides and Currents Weather Stations Pressure Air Temp Water Temp Dewpoint Dewpoint Depression Visibility Wind Speed Wind Dir Waves Ship Positions

MSC Rhiannon

Last reported at 2017-Sep-20 23:21 UTC. Time now 2017-Sep-23 00:23 UTC.
Position N 44°27' E 013°43'.

Length 188 m; draft 8.2 m.

Type: Ship (hazmat cat D). MMSI: 636017023.

Date/timePositionNaut miles runAvg speedWind from/ knotsBaromVisibWave heightAir tempDewpointWater temp
2017-Sep-20 23:21N 44°27' E 013°43'513.8
2017-Sep-20 23:00N 44°31' E 013°39'713.7
2017-Sep-20 22:30N 44°37' E 013°34'713.6
2017-Sep-20 22:00N 44°43' E 013°28'713.6
2017-Sep-20 21:30N 44°48' E 013°23'713.5
2017-Sep-20 21:00N 44°54' E 013°18'713.3
2017-Sep-20 20:30N 44°59' E 013°12'713.3
2017-Sep-20 20:00N 45°05' E 013°07'713.3
2017-Sep-20 19:30N 45°11' E 013°03'713.3
2017-Sep-20 19:00N 45°17' E 013°01'612.8
2017-Sep-20 18:30N 45°24' E 013°01'612.7
2017-Sep-20 18:00N 45°29' E 013°06'713.4
2017-Sep-20 17:30N 45°32' E 013°14'713.2
2017-Sep-20 17:00N 45°35' E 013°23'713.4
2017-Sep-20 16:30N 45°37' E 013°32'611.9
2017-Sep-20 16:00N 45°39' E 013°40'4 8.9
2017-Sep-20 15:30N 45°38' E 013°46'0 0.2
2017-Sep-20 14:59N 45°38' E 013°46'0 0.0
2017-Sep-20 13:53N 45°38' E 013°46'0 0.0
2017-Sep-20 13:23N 45°38' E 013°46'0 0.0
2017-Sep-20 12:53N 45°38' E 013°46'0 0.0
2017-Sep-20 12:29N 45°38' E 013°46'0 0.0
2017-Sep-20 11:59N 45°38' E 013°46'0 0.0
2017-Sep-20 11:29N 45°38' E 013°46'0 0.0
2017-Sep-20 10:59N 45°38' E 013°46'0 0.0
2017-Sep-20 10:29N 45°38' E 013°46'0 0.0
2017-Sep-20 09:59N 45°38' E 013°46'0 0.0
2017-Sep-20 09:29N 45°38' E 013°46'0 0.0
2017-Sep-20 08:59N 45°38' E 013°46'0 0.0
2017-Sep-20 08:29N 45°38' E 013°46'0 0.0
2017-Sep-20 07:56N 45°38' E 013°46'0 0.0
2017-Sep-20 07:29N 45°38' E 013°46'0 0.0
2017-Sep-20 06:56N 45°38' E 013°46'0 0.0
2017-Sep-20 06:26N 45°38' E 013°46'0 0.0
2017-Sep-20 05:59N 45°38' E 013°46'0 0.0
2017-Sep-20 05:26N 45°38' E 013°46'0 0.0
2017-Sep-20 04:59N 45°38' E 013°46'0 0.0
2017-Sep-20 04:26N 45°38' E 013°46'0 0.0
2017-Sep-20 03:59N 45°38' E 013°46'0 0.0
2017-Sep-20 03:23N 45°38' E 013°46'0 0.0
2017-Sep-20 02:59N 45°38' E 013°46'0 0.0
2017-Sep-20 02:29N 45°38' E 013°46'0 0.0
2017-Sep-20 01:56N 45°38' E 013°46'0 0.0
2017-Sep-20 01:23N 45°38' E 013°46'0 0.0
2017-Sep-20 00:59N 45°38' E 013°46'0 0.0
2017-Sep-20 00:26N 45°38' E 013°46'0 0.0
2017-Sep-19 23:59N 45°38' E 013°46'0 0.0
2017-Sep-19 23:29N 45°38' E 013°46'0 0.0
2017-Sep-19 22:56N 45°38' E 013°46'0 0.0
2017-Sep-19 22:29N 45°38' E 013°46'0 0.0
2017-Sep-19 21:56N 45°38' E 013°46'0 0.0
2017-Sep-19 21:29N 45°38' E 013°46'0 0.0
2017-Sep-19 20:59N 45°38' E 013°46'0 0.0
2017-Sep-19 20:26N 45°38' E 013°46'0 0.0
2017-Sep-19 19:59N 45°38' E 013°46'0 0.6
2017-Sep-19 19:30N 45°38' E 013°45'3 6.3
2017-Sep-19 19:00N 45°39' E 013°41'1 3.0
2017-Sep-19 18:30N 45°39' E 013°39'5 9.9
2017-Sep-19 18:00N 45°36' E 013°34'613.1
2017-Sep-19 17:30N 45°32' E 013°26'612.8
2017-Sep-19 17:00N 45°29' E 013°18'612.7
2017-Sep-19 16:30N 45°26' E 013°10'612.4
2017-Sep-19 16:00N 45°24' E 013°02'612.4
2017-Sep-19 15:30N 45°22' E 012°53'612.4
2017-Sep-19 15:00N 45°19' E 012°45'612.4
2017-Sep-19 14:30N 45°17' E 012°37'611.5
2017-Sep-19 14:00N 45°15' E 012°30'713.3
2017-Sep-19 13:30N 45°19' E 012°23'510.0
2017-Sep-19 13:00N 45°21' E 012°16'4 7.6
2017-Sep-19 12:30N 45°25' E 012°16'2 5.0
2017-Sep-19 12:01N 45°27' E 012°15'0 0.2
2017-Sep-19 11:29N 45°27' E 012°15'0 0.0
2017-Sep-19 10:59N 45°27' E 012°15'0 0.0
2017-Sep-19 10:29N 45°27' E 012°15'0 0.0
2017-Sep-19 09:59N 45°27' E 012°15'0 0.0
2017-Sep-19 09:29N 45°27' E 012°15'0 0.0
2017-Sep-19 08:59N 45°27' E 012°15'0 0.0
2017-Sep-19 08:29N 45°27' E 012°15'0 0.0
2017-Sep-19 07:59N 45°27' E 012°15'0 0.0
2017-Sep-19 07:29N 45°27' E 012°15'0 0.0
2017-Sep-19 06:59N 45°27' E 012°15'0 0.0
2017-Sep-19 06:29N 45°27' E 012°15'0 0.0
2017-Sep-19 05:59N 45°27' E 012°15'0 0.0
2017-Sep-19 05:29N 45°27' E 012°15'0 0.0
2017-Sep-19 04:59N 45°27' E 012°15'0 0.0
2017-Sep-19 04:29N 45°27' E 012°15'0 0.0
2017-Sep-19 03:56N 45°27' E 012°15'0 0.0
2017-Sep-19 03:29N 45°27' E 012°15'0 0.0
2017-Sep-19 02:59N 45°27' E 012°15'0 0.0
2017-Sep-19 02:29N 45°27' E 012°15'0 0.0
2017-Sep-19 01:59N 45°27' E 012°15'0 0.0
2017-Sep-19 01:29N 45°27' E 012°15'0 0.0
2017-Sep-19 00:56N 45°27' E 012°15'0 0.0
2017-Sep-19 00:29N 45°27' E 012°15'0 0.0
2017-Sep-18 23:59N 45°27' E 012°15'0 0.0
2017-Sep-18 23:29N 45°27' E 012°15'0 0.0
2017-Sep-18 22:59N 45°27' E 012°15'0 0.0
2017-Sep-18 22:29N 45°27' E 012°15'0 0.0
2017-Sep-18 21:59N 45°27' E 012°15'0 0.0
2017-Sep-18 21:29N 45°27' E 012°15'0 0.0
2017-Sep-18 20:59N 45°27' E 012°15'0 0.0
2017-Sep-18 20:29N 45°27' E 012°15'0 0.0
2017-Sep-18 19:59N 45°27' E 012°15'0 0.0
2017-Sep-18 19:29N 45°27' E 012°15'0 0.0
2017-Sep-18 18:59N 45°27' E 012°15'0 0.0
2017-Sep-18 18:29N 45°27' E 012°15'0 0.0
2017-Sep-18 17:59N 45°27' E 012°15'0 0.0
2017-Sep-18 17:29N 45°27' E 012°15'0 0.0
2017-Sep-18 16:59N 45°27' E 012°15'0 0.0
2017-Sep-18 16:29N 45°27' E 012°15'0 0.0
2017-Sep-18 15:59N 45°27' E 012°15'0 0.0
2017-Sep-18 15:29N 45°27' E 012°15'0 0.0
2017-Sep-18 14:59N 45°27' E 012°15'0 0.0
2017-Sep-18 14:29N 45°27' E 012°15'0 0.0
2017-Sep-18 13:59N 45°27' E 012°15'0 0.0
2017-Sep-18 13:29N 45°27' E 012°15'0 0.0
2017-Sep-18 12:59N 45°27' E 012°15'0 0.0
2017-Sep-18 12:29N 45°27' E 012°15'0 0.0
2017-Sep-18 11:59N 45°27' E 012°15'0 0.0
2017-Sep-18 11:29N 45°27' E 012°15'0 0.0
2017-Sep-18 10:59N 45°27' E 012°15'0 0.0
2017-Sep-18 10:29N 45°27' E 012°15'0 0.0
2017-Sep-18 09:59N 45°27' E 012°15'0 0.0
2017-Sep-18 09:29N 45°27' E 012°15'0 0.0
2017-Sep-18 08:59N 45°27' E 012°15'0 0.0
2017-Sep-18 08:29N 45°27' E 012°15'0 0.0
2017-Sep-18 07:59N 45°27' E 012°15'0 0.0
2017-Sep-18 07:29N 45°27' E 012°15'0 0.0
2017-Sep-18 06:59N 45°27' E 012°15'0 0.0
2017-Sep-18 06:29N 45°27' E 012°15'0 0.0
2017-Sep-18 05:59N 45°27' E 012°15'0 0.9
2017-Sep-18 05:30N 45°27' E 012°16'3 6.2
2017-Sep-18 05:00N 45°24' E 012°16'4 7.4
2017-Sep-18 04:30N 45°20' E 012°18'4 9.0
2017-Sep-18 04:00N 45°19' E 012°24'3 5.3
2017-Sep-18 03:29N 45°18' E 012°28'3 5.9
2017-Sep-18 03:00N 45°17' E 012°31'4 7.5
2017-Sep-18 02:30N 45°15' E 012°36'5 9.7
2017-Sep-18 02:00N 45°12' E 012°41'5 9.4
2017-Sep-18 01:30N 45°09' E 012°46'5 9.1
2017-Sep-18 01:00N 45°05' E 012°50'5 9.3
2017-Sep-18 00:30N 45°01' E 012°52'510.8
2017-Sep-18 00:00N 44°56' E 012°54'713.0
2017-Sep-17 23:30N 44°49' E 012°52'612.7
2017-Sep-17 23:00N 44°43' E 012°48'612.4
2017-Sep-17 22:30N 44°38' E 012°45'5 9.4
2017-Sep-17 22:00N 44°33' E 012°43'813.0
2017-Sep-17 21:25N 44°28' E 012°36'613.9
2017-Sep-17 21:00N 44°29' E 012°28'2 0.1
2017-Sep-17 04:02N 44°30' E 012°26'0 3.3
2017-Sep-17 03:58N 44°30' E 012°26'14 6.2
2017-Sep-17 01:41N 44°26' E 012°45'211.1
2017-Sep-17 01:30N 44°26' E 012°48'1310.7
2017-Sep-17 00:19N 44°19' E 013°03'412.8
2017-Sep-17 00:00N 44°18' E 013°08'612.1
2017-Sep-16 23:30N 44°17' E 013°17'612.6
2017-Sep-16 23:00N 44°13' E 013°24'26 9.9
2017-Sep-16 20:22N 43°57' E 013°52'22 8.9
2017-Sep-16 17:56N 43°39' E 013°34'4 0.4
2017-Sep-16 07:45N 43°37' E 013°30'0 0.2
2017-Sep-16 07:23N 43°37' E 013°30'21 6.5
2017-Sep-16 04:09N 43°51' E 013°51'6 9.7
2017-Sep-16 03:32N 43°51' E 013°59'0 9.6
2017-Sep-16 03:30N 43°51' E 013°60'26313.6
2017-Sep-15 08:08N 40°45' E 018°12'213.1
2017-Sep-15 07:58N 40°43' E 018°14'612.8
2017-Sep-15 07:28N 40°38' E 018°19'612.6
2017-Sep-15 07:00N 40°33' E 018°23'812.3
2017-Sep-15 06:24N 40°28' E 018°30'512.7
2017-Sep-15 05:59N 40°24' E 018°34'812.8
2017-Sep-15 05:21N 40°17' E 018°41'712.5
2017-Sep-15 04:50N 40°11' E 018°42'813.1
2017-Sep-15 04:14N 40°03' E 018°42'713.2
2017-Sep-15 03:43N 39°56' E 018°42'413.3
2017-Sep-15 03:27N 39°53' E 018°42'613.5
2017-Sep-15 03:00N 39°47' E 018°43'1313.5
2017-Sep-15 02:04N 39°38' E 018°31'113.8
2017-Sep-15 02:00N 39°37' E 018°30'713.7
2017-Sep-15 01:30N 39°32' E 018°24'713.5
2017-Sep-15 01:00N 39°28' E 018°18'713.5
2017-Sep-15 00:30N 39°23' E 018°11'713.4
2017-Sep-15 00:00N 39°19' E 018°05'713.3
2017-Sep-14 23:30N 39°14' E 017°58'713.2
2017-Sep-14 23:00N 39°10' E 017°52'713.2
2017-Sep-14 22:30N 39°05' E 017°46'713.4
2017-Sep-14 22:00N 39°00' E 017°40'713.7
2017-Sep-14 21:30N 38°56' E 017°34'713.6
2017-Sep-14 21:01N 38°51' E 017°27'713.4
2017-Sep-14 20:30N 38°46' E 017°22'713.2
2017-Sep-14 20:01N 38°41' E 017°16'713.8
2017-Sep-14 19:31N 38°36' E 017°09'713.9
2017-Sep-14 19:01N 38°32' E 017°03'6613.4
2017-Sep-14 14:05N 37°50' E 015°58'214.3
2017-Sep-14 13:58N 37°50' E 015°56'714.4
2017-Sep-14 13:30N 37°50' E 015°47'713.5
2017-Sep-14 13:00N 37°52' E 015°39'713.9
2017-Sep-14 12:30N 37°57' E 015°33'714.7
2017-Sep-14 12:00N 38°05' E 015°34'815.2
2017-Sep-14 11:30N 38°12' E 015°35'714.5
2017-Sep-14 11:01N 38°18' E 015°41'713.3
2017-Sep-14 10:30N 38°23' E 015°45'713.5
2017-Sep-14 10:00N 38°27' E 015°52'2 3.0
2017-Sep-14 09:30N 38°28' E 015°54'0 0.0
2017-Sep-14 08:49N 38°28' E 015°54'0 0.0
2017-Sep-14 08:25N 38°28' E 015°54'0 0.0
2017-Sep-14 07:43N 38°28' E 015°54'0 0.0
2017-Sep-14 07:31N 38°28' E 015°54'0 0.0
2017-Sep-14 06:49N 38°28' E 015°54'0 0.0
2017-Sep-14 06:25N 38°28' E 015°54'0 0.0
2017-Sep-14 06:00N 38°28' E 015°54'0 0.0
2017-Sep-14 05:19N 38°28' E 015°54'0 0.0
2017-Sep-14 04:58N 38°28' E 015°54'0 0.0
2017-Sep-13 10:00N 38°28' E 015°54'1 2.2
2017-Sep-13 09:29N 38°27' E 015°54'4 6.5
2017-Sep-13 08:56N 38°28' E 015°49'2 5.5
2017-Sep-13 08:30N 38°27' E 015°52'1 1.9
2017-Sep-13 08:00N 38°27' E 015°53'3 5.9
2017-Sep-13 07:30N 38°28' E 015°50'3 5.5
2017-Sep-13 07:00N 38°29' E 015°47'0 0.7
2017-Sep-13 06:30N 38°28' E 015°47'0 0.4
2017-Sep-13 05:58N 38°28' E 015°47'0 0.3
2017-Sep-13 05:25N 38°28' E 015°47'1 2.0
2017-Sep-13 05:00N 38°28' E 015°47'5 9.5
2017-Sep-13 04:30N 38°23' E 015°46'1113.3
2017-Sep-13 03:40N 38°14' E 015°37'315.6
2017-Sep-13 03:29N 38°11' E 015°37'510.2
2017-Sep-13 03:00N 38°06' E 015°36'5 9.2
2017-Sep-13 02:30N 38°02' E 015°36'6 9.8
2017-Sep-13 01:56N 37°56' E 015°36'7 8.6
2017-Sep-13 01:07N 37°51' E 015°41'210.9
2017-Sep-13 00:58N 37°50' E 015°43'510.6
2017-Sep-13 00:30N 37°47' E 015°49'510.8
2017-Sep-13 00:00N 37°45' E 015°54'610.7
2017-Sep-12 23:25N 37°41' E 016°01'910.4
2017-Sep-12 22:32N 37°37' E 016°12'210.4
2017-Sep-12 22:19N 37°36' E 016°14'  

Dump ship's entire track history